Decoded Metar for UWUU (UFA in RUSSIA) (IATA:UFA) | Meteo·Mobile Aviation Weather
aviador You're here:

UWUU Decoded Metar

UFA in RUSSIA
Report Time2018-12-11 11:00:00
UTC Time2018-12-11 11:15:13
Flight Rules ifr IFR
Wind160° at 6 kt
W.Decomp.*RWY 14: 6.0 kt HW 0.7 kt RCW
W.Rank160° ranks 13
Current wind is below 160° avg. (7.8)
Visibility4000 m
Phenomena:Mist
Clouds:Overcast 006 Hf
Ceiling600 ft
Temp-6°C (ISA -20)
Dew Point-6°C (100% RH)
AAT-10.9°C
QNH1028 hPa
Density Alt-2,497 ft
Elevation449 ft
Report Wrong Elevation
Raw Report
METAR UWUU 111100Z 16003MPS 4000 BR OVC006 M06/M06 Q1028 R14R/0///60
NOSIG RMK QBB180 QFE760/1014=

Extra information for UWUU:More info

Metar Taf Metar & Taf Last 4 Metars F.Rules Stats Wind Profile Meteogram Temp Stats Airport Information Weather charts Add Link Nearby VenuesMetar ALERT Operation Metar Decoded Social comments